Terminal Aerodrome Forecast
Issued by NWS

Home | Current Version | Previous Version | Text Only | Print | Product List | Glossary On
Versions: 1 2 3 4 5 6 7 8 9 10 11 12 13 14 15
000
FTUS42 KTBW 242343
TAFRSW
TAF
KRSW 242343Z 2500/2524 33006KT P6SM SCT050 SCT250
     FM250200 07005KT P6SM FEW035 SCT250
     FM250600 10004KT P6SM SCT025 BKN250
     FM251400 16009KT P6SM SCT030 BKN250
     FM251800 23012G22KT P6SM SCT035 SCT250=

USA.gov is the U.S. government's official web portal to all federal, state and local government web resources and services.